createdAt,value
2019-05-20T00:00:17.086Z,95706.36
2019-05-20T00:02:46.562Z,95703.41
2019-05-20T00:05:15.944Z,95708.35
2019-05-20T00:07:45.341Z,95707.61
2019-05-20T00:10:14.862Z,95699.84
2019-05-20T00:12:44.195Z,95703.86
2019-05-20T00:15:14.068Z,95700.25
2019-05-20T00:17:43.324Z,95704.16
2019-05-20T00:20:12.854Z,95699.08
2019-05-20T00:22:42.252Z,95700.46
2019-05-20T00:25:11.748Z,95701.31
2019-05-20T00:27:41.040Z,95696.45
2019-05-20T00:30:12.405Z,95695.51
2019-05-20T00:32:42.555Z,95696.63
2019-05-20T00:35:12.463Z,95687.75
2019-05-20T00:37:41.749Z,95689.45
2019-05-20T00:40:11.748Z,95687.04
2019-05-20T00:42:41.253Z,95685.48
2019-05-20T00:45:11.258Z,95692.03
2019-05-20T00:47:40.580Z,95686.95
2019-05-20T00:50:10.291Z,95688.37
2019-05-20T00:52:39.591Z,95688.87
2019-05-20T00:55:10.726Z,95691.31
2019-05-20T00:57:39.999Z,95696.94
2019-05-20T01:00:10.086Z,95694.60
2019-05-20T01:02:39.379Z,95696.86
2019-05-20T01:05:08.899Z,95701.44
2019-05-20T01:07:38.141Z,95703.01
2019-05-20T01:10:07.973Z,95701.91
2019-05-20T01:12:37.370Z,95699.77
2019-05-20T01:15:07.797Z,95703.84
2019-05-20T01:17:37.171Z,95699.83
2019-05-20T01:20:07.109Z,95696.59
2019-05-20T01:22:37.075Z,95695.25
2019-05-20T01:25:07.020Z,95703.52
2019-05-20T01:27:36.385Z,95699.50
2019-05-20T01:30:06.255Z,95701.44
2019-05-20T01:32:35.634Z,95697.13
2019-05-20T01:35:05.201Z,95701.67
2019-05-20T01:37:34.502Z,95697.92
2019-05-20T01:40:04.117Z,95692.77
2019-05-20T01:42:33.434Z,95691.51
2019-05-20T01:45:02.707Z,95698.69
2019-05-20T01:47:32.035Z,95692.11
2019-05-20T01:50:01.382Z,95691.81
2019-05-20T01:52:30.594Z,95696.77
2019-05-20T01:54:59.984Z,95697.25
2019-05-20T01:57:29.344Z,95693.83
2019-05-20T01:59:58.731Z,95695.78
2019-05-20T02:02:28.047Z,95691.94
2019-05-20T02:04:57.471Z,95690.00
2019-05-20T02:07:26.826Z,95687.66
2019-05-20T02:09:56.124Z,95683.40
2019-05-20T02:12:25.494Z,95685.08
2019-05-20T02:15:03.465Z,95684.34
2019-05-20T02:17:32.819Z,95687.67
2019-05-20T02:20:02.326Z,95686.67
2019-05-20T02:22:31.778Z,95684.98
2019-05-20T02:25:01.153Z,95682.03
2019-05-20T02:27:30.457Z,95686.75
2019-05-20T02:29:59.811Z,95690.53
2019-05-20T02:32:29.181Z,95688.34
2019-05-20T02:34:58.472Z,95692.95
2019-05-20T02:37:27.951Z,95704.32
2019-05-20T02:39:57.261Z,95698.40
2019-05-20T02:42:26.596Z,95698.41
2019-05-20T02:44:55.847Z,95695.08
2019-05-20T02:47:25.248Z,95693.77
2019-05-20T02:49:54.619Z,95685.50
2019-05-20T02:52:24.041Z,95690.78
2019-05-20T02:54:53.353Z,95683.80
2019-05-20T02:57:22.674Z,95688.73
2019-05-20T02:59:51.942Z,95681.46
2019-05-20T03:02:21.298Z,95681.05
2019-05-20T03:04:50.662Z,95676.62
2019-05-20T03:07:19.975Z,95680.02
2019-05-20T03:09:49.234Z,95674.80
2019-05-20T03:12:18.687Z,95677.72
2019-05-20T03:14:48.062Z,95684.38
2019-05-20T03:17:17.506Z,95675.38
2019-05-20T03:19:46.837Z,95682.45
2019-05-20T03:22:16.103Z,95675.38
2019-05-20T03:24:45.331Z,95688.28
2019-05-20T03:27:14.663Z,95684.18
2019-05-20T03:29:44.087Z,95692.54
2019-05-20T03:32:13.492Z,95685.81
2019-05-20T03:34:48.676Z,95675.05
2019-05-20T03:37:13.988Z,95690.36
2019-05-20T03:39:43.500Z,95692.31
2019-05-20T03:42:12.859Z,95689.56
2019-05-20T03:44:42.459Z,95692.34
2019-05-20T03:47:11.674Z,95692.50
2019-05-20T03:49:40.953Z,95695.23
2019-05-20T03:52:10.219Z,95695.80
2019-05-20T03:54:39.607Z,95696.34
2019-05-20T03:57:08.865Z,95698.52
2019-05-20T03:59:38.208Z,95703.09
2019-05-20T04:02:07.695Z,95701.47
2019-05-20T04:04:36.982Z,95700.13
2019-05-20T04:07:06.276Z,95704.50
2019-05-20T04:09:35.671Z,95705.08
2019-05-20T04:12:04.952Z,95710.19
2019-05-20T04:14:34.277Z,95714.83
2019-05-20T04:17:03.615Z,95710.63
2019-05-20T04:19:33.226Z,95713.51
2019-05-20T04:22:02.603Z,95710.18
2019-05-20T04:24:31.923Z,95711.67
2019-05-20T04:27:01.929Z,95714.56
2019-05-20T04:29:31.529Z,95716.25
2019-05-20T04:32:00.926Z,95716.08
2019-05-20T04:34:30.448Z,95709.00
2019-05-20T04:36:59.987Z,95710.22
2019-05-20T04:39:29.467Z,95711.50
2019-05-20T04:41:59.014Z,95708.92
2019-05-20T04:44:28.617Z,95717.13
2019-05-20T04:46:58.192Z,95722.19
2019-05-20T04:49:42.780Z,95719.34
2019-05-20T04:52:12.072Z,95722.28
2019-05-20T04:54:41.556Z,95717.77
2019-05-20T04:57:10.998Z,95719.59
2019-05-20T04:59:40.616Z,95721.11
2019-05-20T05:02:10.036Z,95724.89
2019-05-20T05:04:39.354Z,95731.39
2019-05-20T05:07:08.819Z,95731.93
2019-05-20T05:09:38.312Z,95731.22
2019-05-20T05:12:08.142Z,95728.70
2019-05-20T05:14:37.484Z,95727.93
2019-05-20T05:17:06.790Z,95727.19
2019-05-20T05:19:36.176Z,95729.50
2019-05-20T05:22:05.635Z,95738.59
2019-05-20T05:24:35.153Z,95738.02
2019-05-20T05:27:04.827Z,95735.44
2019-05-20T05:29:34.103Z,95735.16
2019-05-20T05:32:03.666Z,95743.86
2019-05-20T05:34:33.140Z,95738.11
2019-05-20T05:37:02.490Z,95745.01
2019-05-20T05:39:31.879Z,95746.38
2019-05-20T05:42:01.227Z,95749.77
2019-05-20T05:44:30.594Z,95741.19
2019-05-20T05:46:59.976Z,95746.56
2019-05-20T05:49:29.356Z,95739.91
2019-05-20T05:51:58.750Z,95748.36
2019-05-20T05:54:28.136Z,95750.77
2019-05-20T05:56:57.497Z,95753.91
2019-05-20T05:59:26.801Z,95749.84
2019-05-20T06:01:56.161Z,95751.02
2019-05-20T06:04:25.513Z,95752.94
2019-05-20T06:06:54.906Z,95750.48
2019-05-20T06:09:24.330Z,95750.20
2019-05-20T06:11:53.728Z,95747.95
2019-05-20T06:14:23.065Z,95752.22
2019-05-20T06:16:52.426Z,95754.76
2019-05-20T06:19:21.889Z,95750.61
2019-05-20T06:21:51.393Z,95746.88
2019-05-20T06:24:20.845Z,95756.73
2019-05-20T06:26:50.361Z,95752.81
2019-05-20T06:29:19.766Z,95758.98
2019-05-20T06:31:49.452Z,95765.31
2019-05-20T06:34:18.804Z,95760.48
2019-05-20T06:36:50.749Z,95758.78
2019-05-20T06:39:20.219Z,95757.11
2019-05-20T06:41:49.565Z,95760.23
2019-05-20T06:44:19.055Z,95770.25
2019-05-20T06:46:48.430Z,95767.55
2019-05-20T06:49:17.803Z,95762.75
2019-05-20T06:51:47.129Z,95774.06
2019-05-20T06:54:16.554Z,95776.94
2019-05-20T06:56:46.352Z,95775.98
2019-05-20T06:59:15.986Z,95780.18
2019-05-20T07:01:45.361Z,95777.59
2019-05-20T07:04:14.730Z,95781.42
2019-05-20T07:06:47.303Z,95782.22
2019-05-20T07:09:15.295Z,95781.99
2019-05-20T07:11:52.333Z,95784.01
2019-05-20T07:14:15.658Z,95788.34
2019-05-20T07:16:45.023Z,95789.69
2019-05-20T07:19:14.386Z,95794.70
2019-05-20T07:21:43.948Z,95799.48
2019-05-20T07:24:13.295Z,95805.85
2019-05-20T07:26:42.840Z,95798.67
2019-05-20T07:29:12.264Z,95794.38
2019-05-20T07:31:41.578Z,95796.97
2019-05-20T07:34:11.038Z,95794.28
2019-05-20T07:36:40.413Z,95798.17
2019-05-20T07:39:09.737Z,95795.98
2019-05-20T07:41:41.680Z,95803.45
2019-05-20T07:44:10.340Z,95805.31
2019-05-20T07:46:39.734Z,95798.50
2019-05-20T07:49:10.114Z,95803.05
2019-05-20T07:51:41.152Z,95799.63
2019-05-20T07:54:11.829Z,95796.38
2019-05-20T07:56:44.139Z,95788.41
2019-05-20T07:59:15.967Z,95791.18
2019-05-20T08:01:45.342Z,95791.79
2019-05-20T08:04:14.798Z,95787.95
2019-05-20T08:06:44.277Z,95791.52
2019-05-20T08:09:13.649Z,95793.92
2019-05-20T08:11:43.209Z,95788.52
2019-05-20T08:14:12.608Z,95783.88
2019-05-20T08:16:42.175Z,95783.80
2019-05-20T08:19:11.533Z,95786.20
2019-05-20T08:21:40.856Z,95796.25
2019-05-20T08:24:10.258Z,95794.59
2019-05-20T08:26:39.599Z,95806.85
2019-05-20T08:29:09.138Z,95814.02
2019-05-20T08:31:38.477Z,95822.31
2019-05-20T08:34:07.922Z,95822.99
2019-05-20T08:36:37.219Z,95823.70
2019-05-20T08:39:07.941Z,95825.70
2019-05-20T08:41:37.514Z,95826.80
2019-05-20T08:44:06.840Z,95829.42
2019-05-20T08:46:36.288Z,95828.70
2019-05-20T08:49:10.882Z,95828.17
2019-05-20T08:51:36.781Z,95835.72
2019-05-20T08:54:06.250Z,95834.61
2019-05-20T08:56:35.531Z,95834.66
2019-05-20T08:59:04.936Z,95837.06
2019-05-20T09:01:34.386Z,95829.82
2019-05-20T09:04:04.095Z,95833.31
2019-05-20T09:06:33.575Z,95824.98
2019-05-20T09:09:03.044Z,95823.98
2019-05-20T09:11:32.468Z,95829.71
2019-05-20T09:14:01.831Z,95834.95
2019-05-20T09:16:31.099Z,95828.54
2019-05-20T09:19:00.554Z,95828.03
2019-05-20T09:21:30.120Z,95831.02
2019-05-20T09:23:59.671Z,95832.07
2019-05-20T09:26:29.058Z,95832.11
2019-05-20T09:28:58.495Z,95834.51
2019-05-20T09:31:28.034Z,95825.63
2019-05-20T09:33:57.909Z,95831.23
2019-05-20T09:36:27.274Z,95824.39
2019-05-20T09:38:56.659Z,95828.33
2019-05-20T09:41:26.132Z,95834.51
2019-05-20T09:43:55.475Z,95829.89
2019-05-20T09:46:24.831Z,95835.44
2019-05-20T09:48:54.191Z,95832.33
2019-05-20T09:51:23.619Z,95834.00
2019-05-20T09:53:53.102Z,95842.57
2019-05-20T09:56:22.478Z,95833.86
2019-05-20T09:58:51.940Z,95834.41
2019-05-20T10:01:21.451Z,95838.59
2019-05-20T10:03:51.068Z,95833.61
2019-05-20T10:06:20.465Z,95827.31
2019-05-20T10:08:49.892Z,95820.84
2019-05-20T10:11:19.379Z,95824.09
2019-05-20T10:13:48.815Z,95825.26
2019-05-20T10:16:18.208Z,95828.54
2019-05-20T10:18:47.621Z,95834.61
2019-05-20T10:21:17.014Z,95829.92
2019-05-20T10:23:46.417Z,95835.72
2019-05-20T10:26:15.873Z,95839.69
2019-05-20T10:28:47.307Z,95836.52
2019-05-20T10:31:16.492Z,95839.11
2019-05-20T10:33:45.871Z,95840.28
2019-05-20T10:36:15.216Z,95852.55
2019-05-20T10:38:57.547Z,95848.83
2019-05-20T10:41:15.729Z,95861.05
2019-05-20T10:43:45.199Z,95865.55
2019-05-20T10:46:14.554Z,95869.42
2019-05-20T10:48:43.946Z,95869.19
2019-05-20T10:51:13.332Z,95860.49
2019-05-20T10:53:42.783Z,95868.44
2019-05-20T10:56:13.164Z,95860.86
2019-05-20T10:58:42.874Z,95867.71
2019-05-20T11:02:36.584Z,95862.54
2019-05-20T11:05:06.534Z,95855.91
2019-05-20T11:07:35.915Z,95863.06
2019-05-20T11:10:06.109Z,95870.84
2019-05-20T11:12:35.624Z,95868.63
2019-05-20T11:15:05.905Z,95863.72
2019-05-20T11:17:35.218Z,95876.00
2019-05-20T11:20:04.810Z,95878.14
2019-05-20T11:22:34.162Z,95877.01
2019-05-20T11:25:03.612Z,95885.06
2019-05-20T11:27:33.060Z,95886.66
2019-05-20T11:30:02.376Z,95883.08
2019-05-20T11:32:31.722Z,95895.44
2019-05-20T11:35:01.415Z,95895.06
2019-05-20T11:37:31.372Z,95897.29
2019-05-20T11:40:00.696Z,95898.08
2019-05-20T11:42:29.976Z,95897.53
2019-05-20T11:44:59.363Z,95896.30
2019-05-20T11:47:28.726Z,95883.84
2019-05-20T11:49:58.097Z,95883.70
2019-05-20T11:52:27.519Z,95883.29
2019-05-20T11:54:57.088Z,95881.08
2019-05-20T11:57:26.591Z,95882.34
2019-05-20T11:59:55.992Z,95881.12
2019-05-20T12:02:25.428Z,95879.41
2019-05-20T12:04:54.784Z,95882.25
2019-05-20T12:07:24.086Z,95877.55
2019-05-20T12:09:53.443Z,95875.44
2019-05-20T12:12:22.815Z,95886.45
2019-05-20T12:14:52.169Z,95882.11
2019-05-20T12:17:21.474Z,95882.11
2019-05-20T12:19:50.871Z,95880.48
2019-05-20T12:22:20.342Z,95883.21
2019-05-20T12:24:51.748Z,95892.26
2019-05-20T12:27:20.839Z,95888.21
2019-05-20T12:29:50.288Z,95888.73
2019-05-20T12:32:19.665Z,95895.72
2019-05-20T12:34:49.165Z,95895.44
2019-05-20T12:37:18.467Z,95884.98
2019-05-20T12:39:47.884Z,95891.66
2019-05-20T12:42:17.279Z,95886.47
2019-05-20T12:44:46.800Z,95886.68
2019-05-20T12:47:16.201Z,95885.71
2019-05-20T12:49:45.714Z,95890.74
2019-05-20T12:52:15.176Z,95888.46
2019-05-20T12:54:44.559Z,95898.17
2019-05-20T12:57:14.040Z,95897.05
2019-05-20T12:59:43.543Z,95900.37
2019-05-20T13:02:17.009Z,95903.28
2019-05-20T13:04:44.171Z,95903.33
2019-05-20T13:07:13.533Z,95901.12
2019-05-20T13:09:42.985Z,95906.78
2019-05-20T13:12:12.461Z,95895.60
2019-05-20T13:14:41.848Z,95893.27
2019-05-20T13:17:11.666Z,95887.77
2019-05-20T13:19:41.260Z,95886.14
2019-05-20T13:22:10.716Z,95887.56
2019-05-20T13:24:40.083Z,95888.52
2019-05-20T13:27:09.531Z,95894.23
2019-05-20T13:29:38.870Z,95888.66
2019-05-20T13:32:08.194Z,95884.95
2019-05-20T13:34:37.493Z,95896.05
2019-05-20T13:37:06.847Z,95886.25
2019-05-20T13:39:37.821Z,95882.06
2019-05-20T13:42:07.148Z,95883.30
2019-05-20T13:44:36.474Z,95886.00
2019-05-20T13:47:05.958Z,95880.41
2019-05-20T13:49:35.218Z,95882.50
2019-05-20T13:52:04.758Z,95883.36
2019-05-20T13:54:34.149Z,95882.09
2019-05-20T13:57:03.577Z,95889.70
2019-05-20T13:59:32.979Z,95889.27
2019-05-20T14:02:02.317Z,95893.73
2019-05-20T14:04:31.668Z,95892.23
2019-05-20T14:07:01.138Z,95888.55
2019-05-20T14:09:30.489Z,95885.87
2019-05-20T14:11:59.999Z,95895.02
2019-05-20T14:14:29.505Z,95894.88
2019-05-20T14:16:59.079Z,95884.38
2019-05-20T14:19:28.512Z,95882.35
2019-05-20T14:21:57.955Z,95886.28
2019-05-20T14:24:27.336Z,95876.80
2019-05-20T14:26:56.752Z,95879.58
2019-05-20T14:29:26.280Z,95880.66
2019-05-20T14:31:55.779Z,95884.66
2019-05-20T14:34:25.180Z,95875.72
2019-05-20T14:36:54.497Z,95885.56
2019-05-20T14:39:23.777Z,95870.67
2019-05-20T14:41:53.412Z,95885.97
2019-05-20T14:44:40.870Z,95875.99
2019-05-20T14:47:10.302Z,95883.94
2019-05-20T14:49:39.668Z,95879.06
2019-05-20T14:52:09.055Z,95884.02
2019-05-20T14:54:38.579Z,95882.39
2019-05-20T14:57:07.971Z,95884.42
2019-05-20T14:59:37.302Z,95891.93
2019-05-20T15:02:06.665Z,95897.25
2019-05-20T15:04:36.081Z,95898.25
2019-05-20T15:07:05.341Z,95894.59
2019-05-20T15:09:34.668Z,95899.69
2019-05-20T15:12:04.311Z,95894.00
2019-05-20T15:14:33.658Z,95895.94
2019-05-20T15:17:50.775Z,95903.08
2019-05-20T15:20:24.931Z,95902.78
2019-05-20T15:22:54.538Z,95907.63
2019-05-20T15:25:25.144Z,95916.53
2019-05-20T15:27:55.081Z,95915.68
2019-05-20T15:30:24.645Z,95919.73
2019-05-20T15:32:54.855Z,95918.93
2019-05-20T15:35:24.575Z,95921.88
2019-05-20T15:37:53.991Z,95915.78
2019-05-20T15:40:24.610Z,95916.67
2019-05-20T15:42:54.287Z,95922.00
2019-05-20T15:45:23.596Z,95919.23
2019-05-20T15:47:52.901Z,95927.68
2019-05-20T15:50:22.204Z,95921.52
2019-05-20T15:52:51.562Z,95924.52
2019-05-20T15:55:20.991Z,95927.24
2019-05-20T15:57:51.397Z,95925.73
2019-05-20T16:00:20.732Z,95923.60
2019-05-20T16:02:49.983Z,95922.25
2019-05-20T16:05:19.269Z,95920.22
2019-05-20T16:07:49.292Z,95920.14
2019-05-20T16:12:34.235Z,95910.74
2019-05-20T16:15:03.189Z,95916.23
2019-05-20T16:17:32.679Z,95915.86
2019-05-20T16:20:06.837Z,95912.27
2019-05-20T16:22:35.046Z,95911.20
2019-05-20T16:25:09.723Z,95918.45
2019-05-20T16:27:39.324Z,95905.16
2019-05-20T16:30:10.146Z,95902.13
2019-05-20T16:32:39.725Z,95899.69
2019-05-20T16:35:09.758Z,95895.34
2019-05-20T16:37:57.606Z,95897.75
2019-05-20T16:40:29.985Z,95898.99
2019-05-20T16:42:59.432Z,95896.28
2019-05-20T16:45:28.820Z,95904.37
2019-05-20T16:47:58.150Z,95896.28
2019-05-20T16:50:27.819Z,95899.39
2019-05-20T16:52:57.426Z,95898.59
2019-05-20T16:55:26.901Z,95893.59
2019-05-20T16:57:56.205Z,95892.70
2019-05-20T17:00:31.194Z,95889.65
2019-05-20T17:02:56.682Z,95898.69
2019-05-20T17:05:25.977Z,95901.67
2019-05-20T17:07:55.538Z,95906.07
2019-05-20T17:10:24.941Z,95914.22
2019-05-20T17:12:54.318Z,95917.33
2019-05-20T17:15:59.008Z,95912.75
2019-05-20T17:18:28.684Z,95918.94
2019-05-20T17:20:58.052Z,95929.42
2019-05-20T17:23:27.234Z,95930.16
2019-05-20T17:25:56.842Z,95932.38
2019-05-20T17:28:26.102Z,95925.89
2019-05-20T17:30:55.283Z,95927.14
2019-05-20T17:33:24.526Z,95924.48
2019-05-20T17:35:53.772Z,95928.33
2019-05-20T17:38:23.144Z,95933.20
2019-05-20T17:40:52.658Z,95932.30
2019-05-20T17:43:22.008Z,95929.52
2019-05-20T17:45:51.323Z,95936.77
2019-05-20T17:48:20.689Z,95936.28
2019-05-20T17:50:49.945Z,95938.77
2019-05-20T17:53:19.336Z,95937.08
2019-05-20T17:55:48.559Z,95942.15
2019-05-20T17:58:18.307Z,95947.56
2019-05-20T18:00:48.084Z,95951.72
2019-05-20T18:03:17.432Z,95958.72
2019-05-20T18:05:46.864Z,95956.70
2019-05-20T18:08:16.336Z,95957.37
2019-05-20T18:10:54.098Z,95959.48
2019-05-20T18:13:23.473Z,95957.25
2019-05-20T18:15:52.887Z,95959.89
2019-05-20T18:18:22.299Z,95960.32
2019-05-20T18:20:51.850Z,95966.80
2019-05-20T18:23:21.196Z,95962.18
2019-05-20T18:25:50.653Z,95967.88
2019-05-20T18:28:20.120Z,95964.78
2019-05-20T18:30:49.672Z,95966.70
2019-05-20T18:33:20.824Z,95966.76
2019-05-20T18:35:50.354Z,95971.08
2019-05-20T18:38:19.837Z,95976.13
2019-05-20T18:40:49.212Z,95972.58
2019-05-20T18:43:18.608Z,95974.31
2019-05-20T18:45:48.030Z,95965.16
2019-05-20T18:48:17.825Z,95972.06
2019-05-20T18:50:47.234Z,95971.58
2019-05-20T18:53:16.667Z,95977.22
2019-05-20T18:55:46.095Z,95974.06
2019-05-20T18:58:15.840Z,95975.63
2019-05-20T19:00:45.270Z,95969.86
2019-05-20T19:03:14.779Z,95982.49
2019-05-20T19:05:44.068Z,95979.91
2019-05-20T19:08:13.641Z,95984.64
2019-05-20T19:10:43.089Z,95982.05
2019-05-20T19:13:12.738Z,95992.36
2019-05-20T19:15:42.765Z,95985.07
2019-05-20T19:18:12.332Z,95989.17
2019-05-20T19:20:41.783Z,95993.14
2019-05-20T19:23:11.215Z,95988.33
2019-05-20T19:25:43.837Z,95990.86
2019-05-20T19:28:11.725Z,95984.95
2019-05-20T19:30:41.290Z,95999.20
2019-05-20T19:33:10.777Z,96000.34
2019-05-20T19:35:40.293Z,96002.91
2019-05-20T19:38:09.782Z,95994.70
2019-05-20T19:40:39.039Z,95996.23
2019-05-20T19:43:08.230Z,95992.87
2019-05-20T19:45:39.895Z,95989.59
2019-05-20T19:48:09.314Z,95987.50
2019-05-20T19:50:38.724Z,95991.02
2019-05-20T19:53:08.313Z,95982.45
2019-05-20T19:55:37.693Z,95983.80
2019-05-20T19:58:07.109Z,95984.63
2019-05-20T20:00:39.295Z,95981.00
2019-05-20T20:03:08.666Z,95982.80
2019-05-20T20:05:37.959Z,95991.95
2019-05-20T20:08:07.284Z,95985.58
2019-05-20T20:10:36.870Z,95984.43
2019-05-20T20:13:06.519Z,95989.39
2019-05-20T20:15:35.875Z,95987.23
2019-05-20T20:18:05.406Z,95987.52
2019-05-20T20:20:34.898Z,95987.73
2019-05-20T20:23:04.432Z,95990.61
2019-05-20T20:25:33.760Z,95995.91
2019-05-20T20:28:03.134Z,95991.48
2019-05-20T20:31:46.641Z,96007.06
2019-05-20T20:34:16.159Z,96013.52
2019-05-20T20:36:45.406Z,96016.49
2019-05-20T20:39:14.834Z,96017.86
2019-05-20T20:41:44.282Z,96023.20
2019-05-20T20:44:13.721Z,96014.41
2019-05-20T20:46:43.085Z,96016.58
2019-05-20T20:49:14.756Z,96014.15
2019-05-20T20:51:43.670Z,96018.73
2019-05-20T20:54:16.802Z,96021.40
2019-05-20T20:56:53.491Z,96025.16
2019-05-20T20:59:22.856Z,96013.06
2019-05-20T21:01:55.325Z,96012.46
2019-05-20T21:04:23.480Z,96005.95
2019-05-20T21:06:52.790Z,96000.34
2019-05-20T21:09:22.138Z,96012.59
2019-05-20T21:11:51.440Z,96008.51
2019-05-20T21:14:20.814Z,96006.82
2019-05-20T21:16:50.216Z,96005.82
2019-05-20T21:19:19.552Z,96012.55
2019-05-20T21:21:48.947Z,96012.85
2019-05-20T21:24:18.354Z,96004.94
2019-05-20T21:26:47.852Z,96010.38
2019-05-20T21:29:17.341Z,96005.00
2019-05-20T21:31:46.675Z,96014.13
2019-05-20T21:34:16.192Z,96006.39
2019-05-20T21:36:48.068Z,96003.12
2019-05-20T21:39:16.958Z,96006.67
2019-05-20T21:41:46.354Z,96008.77
2019-05-20T21:44:15.748Z,96003.98
2019-05-20T21:46:45.109Z,96011.98
2019-05-20T21:49:14.507Z,96013.39
2019-05-20T21:51:43.890Z,96009.02
2019-05-20T21:54:13.204Z,96003.92
2019-05-20T21:56:42.497Z,95999.42
2019-05-20T21:59:11.846Z,96006.67
2019-05-20T22:01:41.303Z,96002.11
2019-05-20T22:04:10.696Z,96006.13
2019-05-20T22:06:39.993Z,96002.24
2019-05-20T22:09:10.015Z,96009.58
2019-05-20T22:11:39.658Z,96007.08
2019-05-20T22:14:09.116Z,96005.52
2019-05-20T22:16:38.432Z,96011.72
2019-05-20T22:19:07.812Z,96011.46
2019-05-20T22:21:58.841Z,96006.08
2019-05-20T22:24:28.215Z,96016.64
2019-05-20T22:26:57.660Z,96011.39
2019-05-20T22:29:27.046Z,96013.89
2019-05-20T22:31:56.473Z,96011.25
2019-05-20T22:34:25.903Z,96017.42
2019-05-20T22:36:55.217Z,96013.34
2019-05-20T22:39:24.585Z,96009.09
2019-05-20T22:41:54.084Z,96013.06
2019-05-20T22:44:23.437Z,96012.55
2019-05-20T22:46:52.935Z,96017.98
2019-05-20T22:49:22.400Z,96018.58
2019-05-20T22:51:51.868Z,96011.19
2019-05-20T22:54:21.134Z,96020.18
2019-05-20T22:56:50.672Z,96020.39
2019-05-20T22:59:19.948Z,96017.81
2019-05-20T23:01:49.414Z,96017.75
2019-05-20T23:04:18.822Z,96011.85
2019-05-20T23:06:48.316Z,96022.08
2019-05-20T23:09:17.868Z,96017.49
2019-05-20T23:11:47.244Z,96018.64
2019-05-20T23:14:16.614Z,96016.56
2019-05-20T23:16:46.017Z,96013.80
2019-05-20T23:19:15.324Z,96014.80
2019-05-20T23:21:44.809Z,96012.61
2019-05-20T23:24:14.096Z,96008.14
2019-05-20T23:26:43.696Z,96015.63
2019-05-20T23:29:13.129Z,96005.95
2019-05-20T23:31:42.457Z,96014.41
2019-05-20T23:34:13.288Z,96007.36
2019-05-20T23:36:43.107Z,96012.98
2019-05-20T23:39:12.562Z,96010.31
2019-05-20T23:41:41.921Z,96006.28
2019-05-20T23:44:11.255Z,96008.14
2019-05-20T23:46:40.612Z,96004.61
2019-05-20T23:49:09.883Z,96009.55
2019-05-20T23:51:39.306Z,96008.70
2019-05-20T23:54:08.581Z,96003.78
2019-05-20T23:56:38.042Z,96012.44
2019-05-20T23:59:07.360Z,96011.66
